createdAt,value
2023-02-04T00:00:15.043Z,7.63
2023-02-04T00:02:41.949Z,7.62
2023-02-04T00:05:09.173Z,7.53
2023-02-04T00:07:35.646Z,7.49
2023-02-04T00:10:02.720Z,7.47
2023-02-04T00:12:29.498Z,7.43
2023-02-04T00:14:55.929Z,7.44
2023-02-04T00:17:22.514Z,7.57
2023-02-04T00:19:48.965Z,7.37
2023-02-04T00:22:15.450Z,7.19
2023-02-04T00:24:43.130Z,7.32
2023-02-04T00:27:09.592Z,7.45
2023-02-04T00:29:36.124Z,7.07
2023-02-04T00:32:02.678Z,6.91
2023-02-04T00:34:29.169Z,6.57
2023-02-04T00:36:55.630Z,6.31
2023-02-04T00:39:22.267Z,6.33
2023-02-04T00:41:48.712Z,6.32
2023-02-04T00:44:15.181Z,5.87
2023-02-04T00:46:42.575Z,5.85
2023-02-04T00:49:10.679Z,5.78
2023-02-04T00:51:38.584Z,5.72
2023-02-04T00:54:05.260Z,5.56
2023-02-04T00:56:32.070Z,5.69
2023-02-04T00:58:58.648Z,5.61
2023-02-04T01:01:25.220Z,5.30
2023-02-04T01:03:51.703Z,5.21
2023-02-04T01:06:18.143Z,5.27
2023-02-04T01:08:44.603Z,5.17
2023-02-04T01:11:11.058Z,5.20
2023-02-04T01:13:37.498Z,5.14
2023-02-04T01:16:04.049Z,5.00
2023-02-04T01:18:30.546Z,5.18
2023-02-04T01:20:57.100Z,5.54
2023-02-04T01:23:23.565Z,5.70
2023-02-04T01:25:50.036Z,6.02
2023-02-04T01:28:16.496Z,6.09
2023-02-04T01:30:43.029Z,6.09
2023-02-04T01:33:09.510Z,6.08
2023-02-04T01:35:36.189Z,6.16
2023-02-04T01:38:02.671Z,6.07
2023-02-04T01:40:29.711Z,5.99
2023-02-04T01:42:56.509Z,6.15
2023-02-04T01:45:23.930Z,6.15
2023-02-04T01:47:50.587Z,6.24
2023-02-04T01:50:17.479Z,6.11
2023-02-04T01:52:45.032Z,5.95
2023-02-04T01:55:15.825Z,6.57
2023-02-04T01:57:43.904Z,6.20
2023-02-04T02:00:12.945Z,5.95
2023-02-04T02:02:50.523Z,6.11
2023-02-04T02:05:23.197Z,6.11
2023-02-04T02:07:51.792Z,6.36
2023-02-04T02:10:18.872Z,6.20
2023-02-04T02:12:45.888Z,6.02
2023-02-04T02:15:13.142Z,5.83
2023-02-04T02:17:40.028Z,5.67
2023-02-04T02:20:07.160Z,5.84
2023-02-04T02:22:36.764Z,6.03
2023-02-04T02:25:07.844Z,6.14
2023-02-04T02:27:34.279Z,6.20
2023-02-04T02:30:00.734Z,6.23
2023-02-04T02:32:27.187Z,6.35
2023-02-04T02:34:53.710Z,6.38
2023-02-04T02:37:20.199Z,6.58
2023-02-04T02:39:46.720Z,6.07
2023-02-04T02:42:15.251Z,6.24
2023-02-04T02:44:42.091Z,6.62
2023-02-04T02:47:13.472Z,6.94
2023-02-04T02:49:41.082Z,6.28
2023-02-04T02:52:09.967Z,5.56
2023-02-04T02:54:36.532Z,7.15
2023-02-04T02:57:10.439Z,6.04
2023-02-04T02:59:37.335Z,6.02
2023-02-04T03:02:05.270Z,6.09
2023-02-04T03:04:35.973Z,6.38
2023-02-04T03:07:03.952Z,6.55
2023-02-04T03:09:30.539Z,6.17
2023-02-04T03:11:56.971Z,6.31
2023-02-04T03:14:25.284Z,6.56
2023-02-04T03:16:53.094Z,6.50
2023-02-04T03:19:20.462Z,6.42
2023-02-04T03:21:47.016Z,6.36
2023-02-04T03:24:13.641Z,6.22
2023-02-04T03:26:40.715Z,6.30
2023-02-04T03:29:09.218Z,6.33
2023-02-04T03:31:35.964Z,6.46
2023-02-04T03:34:02.588Z,6.30
2023-02-04T03:36:29.051Z,6.49
2023-02-04T03:38:55.587Z,6.66
2023-02-04T03:41:22.367Z,6.32
2023-02-04T03:43:48.931Z,6.43
2023-02-04T03:46:15.354Z,6.31
2023-02-04T03:48:41.908Z,6.38
2023-02-04T03:51:08.405Z,6.52
2023-02-04T03:53:34.876Z,6.61
2023-02-04T03:56:01.368Z,6.85
2023-02-04T03:58:27.784Z,6.87
2023-02-04T04:00:54.223Z,6.72
2023-02-04T04:03:20.684Z,7.08
2023-02-04T04:05:47.164Z,6.92
2023-02-04T04:08:13.599Z,6.75
2023-02-04T04:10:41.923Z,6.95
2023-02-04T04:13:08.565Z,6.95
2023-02-04T04:15:35.014Z,7.00
2023-02-04T04:18:02.639Z,7.03
2023-02-04T04:20:29.324Z,6.95
2023-02-04T04:22:55.789Z,7.01
2023-02-04T04:25:22.322Z,7.14
2023-02-04T04:27:48.882Z,6.88
2023-02-04T04:30:15.525Z,6.87
2023-02-04T04:32:42.006Z,6.91
2023-02-04T04:35:08.531Z,7.00
2023-02-04T04:37:35.242Z,7.01
2023-02-04T04:40:02.747Z,6.78
2023-02-04T04:42:29.193Z,6.91
2023-02-04T04:44:55.693Z,6.76
2023-02-04T04:47:22.124Z,6.77
2023-02-04T04:49:48.610Z,6.67
2023-02-04T04:52:15.098Z,6.77
2023-02-04T04:54:41.531Z,6.60
2023-02-04T04:57:08.006Z,6.17
2023-02-04T04:59:34.420Z,6.50
2023-02-04T05:02:00.883Z,6.69
2023-02-04T05:04:27.538Z,6.52
2023-02-04T05:06:54.020Z,6.46
2023-02-04T05:09:20.450Z,6.52
2023-02-04T05:11:47.858Z,6.65
2023-02-04T05:14:16.124Z,6.81
2023-02-04T05:16:42.739Z,6.58
2023-02-04T05:19:09.239Z,6.74
2023-02-04T05:21:35.666Z,6.98
2023-02-04T05:24:02.115Z,6.80
2023-02-04T05:26:31.084Z,6.73
2023-02-04T05:29:00.272Z,6.75
2023-02-04T05:31:26.745Z,6.74
2023-02-04T05:33:54.196Z,6.70
2023-02-04T05:36:21.034Z,6.76
2023-02-04T05:38:47.471Z,6.75
2023-02-04T05:41:13.980Z,6.90
2023-02-04T05:43:40.389Z,6.60
2023-02-04T05:46:06.941Z,6.64
2023-02-04T05:48:33.414Z,6.55
2023-02-04T05:50:59.899Z,6.74
2023-02-04T05:53:26.402Z,6.30
2023-02-04T05:55:52.872Z,6.46
2023-02-04T05:58:19.350Z,6.38
2023-02-04T06:00:45.915Z,7.25
2023-02-04T06:03:14.468Z,6.76
2023-02-04T06:05:40.986Z,7.44
2023-02-04T06:08:07.418Z,6.38
2023-02-04T06:10:33.985Z,6.12
2023-02-04T06:13:00.571Z,6.03
2023-02-04T06:15:27.067Z,6.05
2023-02-04T06:17:53.532Z,6.98
2023-02-04T06:20:20.038Z,6.63
2023-02-04T06:22:47.624Z,6.60
2023-02-04T06:25:14.125Z,6.49
2023-02-04T06:27:40.639Z,6.09
2023-02-04T06:30:07.432Z,6.33
2023-02-04T06:32:33.852Z,6.32
2023-02-04T06:35:00.274Z,6.65
2023-02-04T06:37:26.784Z,6.32
2023-02-04T06:39:54.682Z,6.39
2023-02-04T06:42:21.238Z,6.35
2023-02-04T06:44:47.692Z,6.66
2023-02-04T06:47:14.142Z,6.55
2023-02-04T06:49:40.892Z,6.54
2023-02-04T06:52:07.422Z,6.47
2023-02-04T06:54:33.877Z,6.70
2023-02-04T06:57:06.525Z,6.40
2023-02-04T06:59:37.162Z,6.49
2023-02-04T07:02:04.578Z,6.58
2023-02-04T07:04:31.067Z,6.43
2023-02-04T07:06:57.590Z,6.37
2023-02-04T07:09:24.066Z,6.39
2023-02-04T07:11:50.511Z,6.28
2023-02-04T07:14:17.084Z,6.26
2023-02-04T07:16:43.532Z,6.12
2023-02-04T07:19:09.979Z,6.03
2023-02-04T07:21:36.429Z,5.79
2023-02-04T07:24:02.907Z,5.72
2023-02-04T07:26:29.334Z,5.53
2023-02-04T07:28:55.844Z,5.32
2023-02-04T07:31:22.447Z,5.22
2023-02-04T07:33:48.901Z,4.82
2023-02-04T07:36:15.720Z,5.10
2023-02-04T07:38:42.210Z,4.56
2023-02-04T07:41:08.657Z,4.49
2023-02-04T07:43:35.239Z,4.66
2023-02-04T07:46:01.730Z,4.55
2023-02-04T07:48:28.243Z,4.40
2023-02-04T07:50:54.682Z,4.32
2023-02-04T07:53:21.175Z,5.25
2023-02-04T07:55:47.595Z,5.40
2023-02-04T07:58:14.037Z,5.23
2023-02-04T08:00:40.559Z,4.90
2023-02-04T08:03:07.015Z,5.89
2023-02-04T08:05:33.578Z,6.02
2023-02-04T08:08:01.968Z,5.51
2023-02-04T08:10:28.405Z,5.82
2023-02-04T08:12:54.850Z,5.43
2023-02-04T08:15:21.336Z,5.46
2023-02-04T08:17:47.784Z,6.21
2023-02-04T08:20:14.375Z,6.26
2023-02-04T08:22:40.804Z,6.76
2023-02-04T08:25:07.563Z,6.90
2023-02-04T08:27:33.953Z,6.43
2023-02-04T08:30:00.385Z,6.71
2023-02-04T08:32:28.254Z,7.22
2023-02-04T08:34:54.880Z,7.59
2023-02-04T08:37:21.347Z,8.35
2023-02-04T08:39:48.987Z,9.32
2023-02-04T08:42:16.066Z,9.89
2023-02-04T08:44:42.585Z,9.25
2023-02-04T08:47:09.907Z,9.88
2023-02-04T08:49:36.833Z,10.81
2023-02-04T08:52:04.457Z,9.40
2023-02-04T08:54:30.966Z,10.19
2023-02-04T08:56:57.406Z,9.93
2023-02-04T08:59:24.263Z,10.25
2023-02-04T09:01:52.484Z,10.36
2023-02-04T09:04:19.513Z,10.45
2023-02-04T09:06:46.128Z,10.51
2023-02-04T09:09:12.791Z,11.21
2023-02-04T09:11:39.219Z,9.89
2023-02-04T09:14:05.656Z,9.29
2023-02-04T09:16:32.116Z,9.65
2023-02-04T09:18:58.981Z,8.79
2023-02-04T09:21:25.933Z,7.80
2023-02-04T09:23:52.363Z,8.51
2023-02-04T09:26:18.785Z,8.81
2023-02-04T09:28:45.342Z,9.67
2023-02-04T09:31:12.030Z,7.95
2023-02-04T09:33:38.553Z,9.50
2023-02-04T09:36:05.325Z,9.71
2023-02-04T09:38:31.765Z,8.47
2023-02-04T09:41:00.192Z,9.05
2023-02-04T09:43:29.420Z,9.04
2023-02-04T09:45:56.600Z,8.31
2023-02-04T09:48:23.816Z,8.70
2023-02-04T09:50:51.274Z,9.74
2023-02-04T09:53:21.440Z,9.72
2023-02-04T09:55:48.926Z,9.42
2023-02-04T09:58:19.453Z,9.85
2023-02-04T10:00:46.849Z,9.58
2023-02-04T10:03:18.299Z,10.49
2023-02-04T10:05:46.159Z,9.96
2023-02-04T10:08:17.264Z,10.56
2023-02-04T10:10:45.431Z,10.13
2023-02-04T10:13:20.412Z,10.85
2023-02-04T10:15:48.162Z,9.55
2023-02-04T10:18:26.631Z,10.27
2023-02-04T10:20:57.541Z,9.54
2023-02-04T10:23:24.288Z,9.50
2023-02-04T10:25:50.712Z,10.20
2023-02-04T10:28:18.464Z,9.19
2023-02-04T10:30:47.261Z,8.63
2023-02-04T10:33:24.801Z,9.22
2023-02-04T10:35:52.649Z,9.51
2023-02-04T10:38:19.644Z,8.61
2023-02-04T10:40:47.370Z,9.12
2023-02-04T10:43:18.469Z,9.92
2023-02-04T10:45:46.937Z,9.37
2023-02-04T10:48:15.525Z,9.92
2023-02-04T10:50:42.018Z,9.84
2023-02-04T10:53:28.320Z,9.85
2023-02-04T10:55:54.918Z,9.20
2023-02-04T10:58:26.758Z,9.62
2023-02-04T11:00:53.323Z,9.20
2023-02-04T11:03:22.914Z,8.90
2023-02-04T11:05:49.638Z,9.75
2023-02-04T11:08:26.745Z,10.28
2023-02-04T11:10:56.596Z,9.90
2023-02-04T11:13:43.410Z,9.63
2023-02-04T11:16:19.055Z,9.78
2023-02-04T11:18:50.138Z,9.61
2023-02-04T11:21:28.816Z,9.50
2023-02-04T11:24:16.537Z,9.83
2023-02-04T11:26:43.863Z,10.03
2023-02-04T11:29:25.184Z,10.94
2023-02-04T11:31:51.815Z,10.95
2023-02-04T11:34:21.659Z,11.78
2023-02-04T11:36:51.233Z,12.25
2023-02-04T11:39:18.063Z,11.68
2023-02-04T11:41:47.736Z,11.65
2023-02-04T11:44:15.375Z,12.60
2023-02-04T11:46:42.271Z,12.71
2023-02-04T11:49:27.271Z,12.69
2023-02-04T11:52:09.684Z,12.72
2023-02-04T11:54:36.447Z,12.66
2023-02-04T11:57:03.288Z,12.64
2023-02-04T11:59:29.796Z,13.14
2023-02-04T12:02:06.179Z,12.45
2023-02-04T12:04:32.762Z,13.01
2023-02-04T12:07:00.741Z,13.71
2023-02-04T12:09:29.905Z,14.50
2023-02-04T12:12:00.830Z,13.54
2023-02-04T12:14:37.047Z,13.58
2023-02-04T12:17:21.341Z,13.48
2023-02-04T12:19:47.825Z,13.12
2023-02-04T12:22:15.685Z,13.04
2023-02-04T12:24:42.905Z,13.36
2023-02-04T12:27:09.386Z,12.58
2023-02-04T12:29:35.866Z,12.18
2023-02-04T12:32:02.357Z,12.09
2023-02-04T12:34:28.940Z,12.15
2023-02-04T12:36:55.384Z,12.36
2023-02-04T12:39:21.854Z,11.18
2023-02-04T12:41:48.295Z,10.99
2023-02-04T12:44:15.807Z,10.40
2023-02-04T12:46:42.235Z,11.70
2023-02-04T12:49:09.698Z,9.98
2023-02-04T12:51:36.258Z,11.09
2023-02-04T12:54:02.740Z,11.22
2023-02-04T12:56:29.230Z,11.38
2023-02-04T12:58:55.728Z,11.26
2023-02-04T13:01:22.189Z,11.22
2023-02-04T13:03:48.648Z,11.33
2023-02-04T13:06:15.097Z,11.49
2023-02-04T13:08:41.547Z,11.45
2023-02-04T13:11:08.040Z,11.39
2023-02-04T13:13:34.506Z,10.09
2023-02-04T13:16:01.143Z,10.16
2023-02-04T13:18:27.594Z,10.30
2023-02-04T13:20:54.097Z,10.47
2023-02-04T13:23:20.589Z,10.22
2023-02-04T13:25:47.124Z,9.90
2023-02-04T13:28:14.132Z,9.05
2023-02-04T13:30:40.705Z,8.43
2023-02-04T13:33:07.244Z,8.77
2023-02-04T13:35:33.894Z,8.75
2023-02-04T13:38:00.615Z,8.44
2023-02-04T13:40:27.112Z,8.50
2023-02-04T13:42:53.597Z,8.52
2023-02-04T13:45:20.236Z,8.31
2023-02-04T13:47:48.001Z,7.75
2023-02-04T13:50:15.971Z,7.73
2023-02-04T13:52:42.422Z,8.07
2023-02-04T13:55:08.930Z,7.81
2023-02-04T13:57:37.318Z,7.29
2023-02-04T14:00:04.954Z,7.75
2023-02-04T14:02:38.836Z,7.90
2023-02-04T14:05:05.576Z,7.29
2023-02-04T14:07:33.423Z,7.27
2023-02-04T14:09:59.895Z,7.57
2023-02-04T14:12:26.300Z,8.02
2023-02-04T14:14:53.113Z,8.19
2023-02-04T14:17:19.655Z,8.39
2023-02-04T14:19:46.196Z,8.48
2023-02-04T14:22:13.224Z,8.19
2023-02-04T14:24:42.430Z,7.87
2023-02-04T14:27:09.648Z,8.11
2023-02-04T14:29:36.162Z,7.95
2023-02-04T14:32:02.638Z,7.98
2023-02-04T14:34:29.084Z,7.72
2023-02-04T14:36:55.559Z,7.65
2023-02-04T14:39:21.998Z,7.33
2023-02-04T14:41:48.470Z,7.35
2023-02-04T14:44:20.525Z,7.01
2023-02-04T14:46:50.730Z,6.55
2023-02-04T14:49:17.422Z,6.16
2023-02-04T14:51:44.373Z,6.47
2023-02-04T14:54:11.077Z,6.76
2023-02-04T14:56:37.542Z,6.62
2023-02-04T14:59:03.976Z,6.44
2023-02-04T15:01:31.031Z,6.42
2023-02-04T15:03:58.185Z,6.15
2023-02-04T15:06:24.604Z,6.25
2023-02-04T15:08:51.072Z,6.28
2023-02-04T15:11:17.525Z,5.85
2023-02-04T15:13:43.953Z,5.81
2023-02-04T15:16:12.298Z,5.69
2023-02-04T15:18:38.877Z,5.84
2023-02-04T15:21:05.448Z,5.64
2023-02-04T15:23:31.899Z,5.71
2023-02-04T15:25:58.404Z,5.70
2023-02-04T15:28:24.944Z,5.41
2023-02-04T15:30:51.500Z,5.41
2023-02-04T15:33:18.044Z,5.04
2023-02-04T15:35:44.467Z,5.10
2023-02-04T15:38:11.176Z,5.03
2023-02-04T15:40:37.610Z,5.59
2023-02-04T15:43:04.080Z,5.10
2023-02-04T15:45:30.570Z,5.35
2023-02-04T15:47:56.993Z,5.16
2023-02-04T15:50:23.421Z,4.87
2023-02-04T15:52:49.908Z,4.97
2023-02-04T15:55:16.455Z,5.00
2023-02-04T15:57:42.933Z,4.84
2023-02-04T16:00:09.701Z,4.48
2023-02-04T16:02:36.280Z,4.61
2023-02-04T16:05:02.851Z,4.58
2023-02-04T16:07:29.286Z,4.82
2023-02-04T16:09:55.728Z,4.58
2023-02-04T16:12:22.143Z,4.60
2023-02-04T16:14:48.617Z,4.55
2023-02-04T16:17:15.037Z,4.47
2023-02-04T16:19:41.568Z,4.77
2023-02-04T16:22:08.095Z,4.40
2023-02-04T16:24:35.344Z,4.27
2023-02-04T16:27:01.758Z,4.16
2023-02-04T16:29:28.289Z,4.30
2023-02-04T16:31:55.536Z,4.39
2023-02-04T16:34:22.040Z,4.37
2023-02-04T16:36:48.514Z,4.17
2023-02-04T16:39:15.262Z,4.28
2023-02-04T16:41:41.867Z,4.12
2023-02-04T16:44:08.317Z,4.20
2023-02-04T16:46:34.796Z,4.07
2023-02-04T16:49:01.395Z,4.18
2023-02-04T16:51:28.112Z,4.00
2023-02-04T16:53:54.568Z,3.90
2023-02-04T16:56:21.041Z,3.97
2023-02-04T16:58:48.338Z,3.98
2023-02-04T17:01:17.155Z,3.93
2023-02-04T17:03:44.013Z,3.93
2023-02-04T17:06:10.492Z,3.96
2023-02-04T17:08:36.939Z,3.85
2023-02-04T17:11:22.083Z,4.01
2023-02-04T17:13:48.555Z,3.69
2023-02-04T17:16:15.169Z,3.62
2023-02-04T17:18:41.655Z,3.62
2023-02-04T17:21:08.069Z,3.55
2023-02-04T17:23:35.408Z,3.69
2023-02-04T17:26:01.960Z,3.75
2023-02-04T17:28:28.505Z,3.65
2023-02-04T17:30:55.029Z,3.70
2023-02-04T17:33:21.608Z,3.53
2023-02-04T17:35:48.627Z,3.47
2023-02-04T17:38:15.176Z,3.63
2023-02-04T17:40:42.577Z,3.56
2023-02-04T17:43:09.202Z,3.45
2023-02-04T17:45:36.112Z,3.36
2023-02-04T17:48:02.771Z,3.86
2023-02-04T17:50:29.232Z,3.66
2023-02-04T17:52:55.762Z,3.52
2023-02-04T17:55:28.810Z,4.12
2023-02-04T17:57:55.794Z,3.65
2023-02-04T18:00:23.445Z,3.36
2023-02-04T18:02:50.807Z,3.72
2023-02-04T18:05:24.858Z,3.55
2023-02-04T18:08:14.636Z,3.42
2023-02-04T18:10:59.349Z,3.53
2023-02-04T18:13:32.959Z,3.21
2023-02-04T18:16:10.133Z,3.29
2023-02-04T18:18:37.814Z,3.32
2023-02-04T18:21:21.804Z,3.21
2023-02-04T18:23:52.938Z,3.26
2023-02-04T18:26:22.912Z,3.29
2023-02-04T18:28:49.851Z,3.20
2023-02-04T18:31:32.285Z,3.07
2023-02-04T18:33:58.968Z,3.07
2023-02-04T18:36:27.410Z,3.20
2023-02-04T18:38:54.865Z,2.98
2023-02-04T18:41:31.361Z,3.13
2023-02-04T18:44:02.787Z,3.16
2023-02-04T18:46:31.775Z,3.35
2023-02-04T18:49:19.366Z,3.31
2023-02-04T18:51:46.161Z,3.16
2023-02-04T18:54:23.395Z,3.37
2023-02-04T18:56:49.852Z,3.07
2023-02-04T18:59:17.339Z,3.21
2023-02-04T19:01:45.746Z,3.20
2023-02-04T19:04:13.881Z,3.11
2023-02-04T19:06:42.596Z,3.11
2023-02-04T19:09:12.202Z,3.13
2023-02-04T19:11:46.490Z,3.15
2023-02-04T19:14:31.148Z,3.11
2023-02-04T19:17:25.170Z,3.12
2023-02-04T19:19:55.511Z,2.91
2023-02-04T19:22:40.595Z,2.99
2023-02-04T19:25:22.442Z,2.94
2023-02-04T19:27:54.083Z,3.34
2023-02-04T19:30:26.755Z,3.05
2023-02-04T19:32:57.011Z,3.08
2023-02-04T19:35:24.974Z,2.97
2023-02-04T19:37:54.561Z,3.09
2023-02-04T19:40:47.441Z,3.06
2023-02-04T19:43:21.971Z,3.20
2023-02-04T19:45:50.927Z,3.02
2023-02-04T19:48:22.628Z,2.98
2023-02-04T19:50:51.447Z,2.87
2023-02-04T19:53:22.371Z,2.96
2023-02-04T19:55:52.485Z,2.88
2023-02-04T19:58:18.960Z,3.02
2023-02-04T20:01:01.927Z,2.90
2023-02-04T20:03:41.787Z,3.01
2023-02-04T20:06:23.355Z,2.96
2023-02-04T20:08:54.173Z,2.80
2023-02-04T20:11:20.593Z,2.71
2023-02-04T20:13:47.031Z,2.80
2023-02-04T20:16:32.223Z,2.79
2023-02-04T20:19:00.929Z,2.72
2023-02-04T20:21:27.763Z,2.93
2023-02-04T20:23:54.617Z,2.79
2023-02-04T20:26:21.078Z,2.71
2023-02-04T20:28:48.061Z,2.69
2023-02-04T20:31:22.328Z,2.75
2023-02-04T20:33:50.513Z,2.78
2023-02-04T20:36:19.939Z,2.80
2023-02-04T20:38:46.444Z,2.66
2023-02-04T20:41:16.036Z,2.69
2023-02-04T20:43:42.916Z,2.67
2023-02-04T20:46:14.905Z,2.87
2023-02-04T20:48:42.999Z,2.61
2023-02-04T20:51:22.960Z,3.01
2023-02-04T20:53:50.721Z,2.64
2023-02-04T20:56:32.106Z,2.77
2023-02-04T20:59:17.278Z,2.68
2023-02-04T21:01:48.860Z,2.61
2023-02-04T21:04:15.344Z,2.71
2023-02-04T21:06:41.769Z,2.73
2023-02-04T21:09:10.747Z,2.54
2023-02-04T21:11:37.262Z,3.14
2023-02-04T21:14:03.674Z,3.01
2023-02-04T21:16:30.114Z,2.83
2023-02-04T21:18:56.563Z,3.01
2023-02-04T21:21:24.442Z,2.65
2023-02-04T21:23:51.116Z,2.44
2023-02-04T21:26:17.540Z,2.47
2023-02-04T21:28:44.180Z,2.34
2023-02-04T21:31:11.611Z,2.37
2023-02-04T21:33:38.238Z,2.30
2023-02-04T21:36:04.839Z,2.32
2023-02-04T21:38:31.281Z,2.37
2023-02-04T21:40:57.756Z,2.49
2023-02-04T21:43:24.189Z,2.37
2023-02-04T21:45:50.716Z,2.49
2023-02-04T21:48:17.259Z,2.40
2023-02-04T21:50:43.889Z,2.51
2023-02-04T21:53:10.529Z,2.32
2023-02-04T21:55:37.143Z,2.12
2023-02-04T21:58:04.171Z,2.14
2023-02-04T22:00:30.686Z,2.02
2023-02-04T22:02:57.294Z,2.05
2023-02-04T22:05:24.391Z,1.97
2023-02-04T22:07:51.175Z,2.04
2023-02-04T22:10:19.261Z,2.03
2023-02-04T22:12:45.710Z,1.99
2023-02-04T22:15:12.171Z,1.94
2023-02-04T22:17:38.667Z,1.85
2023-02-04T22:20:05.351Z,1.79
2023-02-04T22:22:31.825Z,1.89
2023-02-04T22:24:58.319Z,1.84
2023-02-04T22:27:24.884Z,1.71
2023-02-04T22:29:51.340Z,1.62
2023-02-04T22:32:17.776Z,1.72
2023-02-04T22:34:44.205Z,1.67
2023-02-04T22:37:10.677Z,1.50
2023-02-04T22:39:37.168Z,1.58
2023-02-04T22:42:03.707Z,1.33
2023-02-04T22:44:30.177Z,1.32
2023-02-04T22:46:56.732Z,1.19
2023-02-04T22:49:23.327Z,1.26
2023-02-04T22:51:49.810Z,1.05
2023-02-04T22:54:16.560Z,1.07
2023-02-04T22:56:43.004Z,0.96
2023-02-04T22:59:09.494Z,1.09
2023-02-04T23:01:35.988Z,0.92
2023-02-04T23:04:02.621Z,0.91
2023-02-04T23:06:29.124Z,0.81
2023-02-04T23:08:55.755Z,0.82
2023-02-04T23:11:23.212Z,0.68
2023-02-04T23:13:50.286Z,0.59
2023-02-04T23:16:17.279Z,0.36
2023-02-04T23:18:43.976Z,0.41
2023-02-04T23:21:10.593Z,0.32
2023-02-04T23:23:37.438Z,0.22
2023-02-04T23:26:04.036Z,0.29
2023-02-04T23:28:31.015Z,0.34
2023-02-04T23:30:57.700Z,0.40
2023-02-04T23:33:24.288Z,0.44
2023-02-04T23:35:50.851Z,0.17
2023-02-04T23:38:17.285Z,0.53
2023-02-04T23:40:43.767Z,0.23
2023-02-04T23:43:10.963Z,0.09
2023-02-04T23:45:37.747Z,0.37
2023-02-04T23:48:04.437Z,0.53
2023-02-04T23:50:30.904Z,0.64
2023-02-04T23:52:57.338Z,0.58
2023-02-04T23:55:24.155Z,0.60
2023-02-04T23:57:50.705Z,0.67
